createdAt,value
2017-06-27T03:50:11.911Z,4.60
2017-06-27T03:52:39.360Z,5.17
2017-06-27T03:55:06.787Z,5.03
2017-06-27T03:57:34.181Z,4.60
2017-06-27T04:00:01.629Z,4.30
2017-06-27T04:02:29.295Z,4.40
2017-06-27T04:04:56.727Z,3.97
2017-06-27T04:07:24.144Z,4.47
2017-06-27T04:09:51.559Z,4.20
2017-06-27T04:12:19.873Z,4.70
2017-06-27T04:14:47.415Z,4.10
2017-06-27T04:17:14.939Z,4.33
2017-06-27T04:19:42.389Z,4.27
2017-06-27T04:22:10.449Z,4.47
2017-06-27T04:24:37.869Z,4.80
2017-06-27T04:27:05.413Z,4.43
2017-06-27T04:29:32.863Z,4.70
2017-06-27T04:32:00.308Z,4.63
2017-06-27T04:34:27.711Z,4.60
2017-06-27T04:36:55.173Z,5.07
2017-06-27T04:39:22.575Z,4.47
2017-06-27T04:41:49.996Z,4.40
2017-06-27T04:44:17.463Z,4.80
2017-06-27T04:46:44.920Z,4.70
2017-06-27T04:49:12.324Z,4.97
2017-06-27T04:51:39.728Z,4.37
2017-06-27T04:54:07.187Z,4.70
2017-06-27T04:56:34.596Z,4.97
2017-06-27T04:59:02.019Z,4.47
2017-06-27T05:01:29.458Z,3.83
2017-06-27T05:03:57.427Z,3.87
2017-06-27T05:06:24.869Z,4.13
2017-06-27T05:08:52.285Z,3.60
2017-06-27T05:11:19.715Z,4.70
2017-06-27T05:13:47.161Z,4.23
2017-06-27T05:16:14.594Z,3.93
2017-06-27T05:18:42.031Z,4.50
2017-06-27T05:21:09.546Z,4.00
2017-06-27T05:23:36.959Z,4.33
2017-06-27T05:26:04.364Z,3.37
2017-06-27T05:28:31.812Z,3.07
2017-06-27T05:30:59.239Z,3.53
2017-06-27T05:33:26.664Z,3.70
2017-06-27T05:35:54.141Z,3.43
2017-06-27T05:38:21.616Z,3.43
2017-06-27T05:40:49.039Z,3.03
2017-06-27T05:43:16.524Z,3.30
2017-06-27T05:45:43.931Z,3.40
2017-06-27T05:48:11.344Z,3.20
2017-06-27T05:50:38.808Z,2.93
2017-06-27T05:53:06.269Z,2.90
2017-06-27T05:55:33.706Z,3.23
2017-06-27T05:58:01.176Z,3.00
2017-06-27T06:00:28.611Z,2.80
2017-06-27T06:02:56.056Z,3.03
2017-06-27T06:05:23.489Z,3.40
2017-06-27T06:07:50.932Z,3.47
2017-06-27T06:10:18.403Z,3.80
2017-06-27T06:12:45.885Z,3.20
2017-06-27T06:15:13.291Z,2.97
2017-06-27T06:17:40.747Z,3.10
2017-06-27T06:20:08.169Z,2.60
2017-06-27T06:22:35.614Z,3.00
2017-06-27T06:25:03.023Z,2.10
2017-06-27T06:27:30.491Z,2.30
2017-06-27T06:29:58.071Z,2.97
2017-06-27T06:32:25.794Z,3.33
2017-06-27T06:34:53.224Z,3.40
2017-06-27T06:37:20.774Z,3.13
2017-06-27T06:39:48.256Z,3.17
2017-06-27T06:42:15.646Z,3.47
2017-06-27T06:44:43.074Z,3.40
2017-06-27T06:47:10.551Z,3.33
2017-06-27T06:49:37.979Z,3.40
2017-06-27T06:52:05.428Z,2.57
2017-06-27T06:54:33.111Z,3.53
2017-06-27T06:57:00.531Z,3.30
2017-06-27T06:59:27.936Z,3.90
2017-06-27T07:01:55.402Z,3.53
2017-06-27T07:04:22.803Z,3.00
2017-06-27T07:06:50.248Z,3.17
2017-06-27T07:09:17.703Z,2.80
2017-06-27T07:11:45.111Z,2.30
2017-06-27T07:14:12.520Z,2.87
2017-06-27T07:16:40.030Z,2.60
2017-06-27T07:19:07.427Z,2.83
2017-06-27T07:21:34.839Z,2.30
2017-06-27T07:24:02.297Z,2.20
2017-06-27T07:26:29.698Z,2.53
2017-06-27T07:28:57.123Z,2.77
2017-06-27T07:31:24.557Z,3.03
2017-06-27T07:33:51.993Z,2.87
2017-06-27T07:36:19.479Z,2.80
2017-06-27T07:38:46.899Z,3.80
2017-06-27T07:41:14.357Z,3.20
2017-06-27T07:43:41.772Z,3.07
2017-06-27T07:46:09.192Z,3.20
2017-06-27T07:48:36.636Z,3.60
2017-06-27T07:51:04.083Z,3.03
2017-06-27T07:53:31.521Z,3.40
2017-06-27T07:55:58.931Z,3.40
2017-06-27T07:58:26.419Z,3.00
2017-06-27T08:00:53.900Z,3.20
2017-06-27T08:03:21.359Z,4.10
2017-06-27T08:05:48.821Z,4.20
2017-06-27T08:08:16.264Z,3.93
2017-06-27T08:10:43.723Z,3.80
2017-06-27T08:13:11.119Z,3.70
2017-06-27T08:15:38.636Z,3.90
2017-06-27T08:18:06.176Z,3.20
2017-06-27T08:20:33.589Z,3.20
2017-06-27T08:23:01.003Z,2.80
2017-06-27T08:25:28.440Z,2.87
2017-06-27T08:27:55.851Z,2.60
2017-06-27T08:30:23.251Z,2.80
2017-06-27T08:32:50.795Z,2.80
2017-06-27T08:35:18.383Z,2.90
2017-06-27T08:37:45.801Z,3.03
2017-06-27T08:40:13.207Z,2.87
2017-06-27T08:42:40.641Z,2.60
2017-06-27T08:45:08.069Z,2.93
2017-06-27T08:47:35.475Z,3.37
2017-06-27T08:50:05.675Z,3.10
2017-06-27T08:52:33.131Z,2.97
2017-06-27T08:55:00.563Z,3.10
2017-06-27T08:57:28.020Z,3.63
2017-06-27T08:59:55.436Z,3.50
2017-06-27T09:02:22.891Z,3.17
2017-06-27T09:04:50.437Z,2.70
2017-06-27T09:07:17.872Z,2.90
2017-06-27T09:09:45.319Z,2.63
2017-06-27T09:12:12.729Z,2.90
2017-06-27T09:14:40.139Z,2.80
2017-06-27T09:17:07.580Z,2.77
2017-06-27T09:19:34.995Z,2.40
2017-06-27T09:22:02.442Z,3.07
2017-06-27T09:24:30.458Z,3.27
2017-06-27T09:26:57.909Z,2.70
2017-06-27T09:29:25.358Z,3.20
2017-06-27T09:31:52.782Z,2.50
2017-06-27T09:34:20.221Z,2.90
2017-06-27T09:36:47.631Z,2.60
2017-06-27T09:39:15.068Z,3.00
2017-06-27T09:41:42.475Z,2.90
2017-06-27T09:44:09.980Z,3.20
2017-06-27T09:46:37.379Z,2.87
2017-06-27T09:49:04.844Z,3.20
2017-06-27T09:51:32.266Z,3.30
2017-06-27T09:53:59.689Z,2.77
2017-06-27T09:56:27.123Z,2.80
2017-06-27T09:58:55.200Z,2.93
2017-06-27T10:01:22.645Z,2.80
2017-06-27T10:03:50.081Z,2.50
2017-06-27T10:06:17.503Z,2.73
2017-06-27T10:08:44.940Z,2.60
2017-06-27T10:11:12.387Z,2.70
2017-06-27T10:13:39.840Z,2.60
2017-06-27T10:16:07.275Z,2.77
2017-06-27T10:18:34.683Z,2.57
2017-06-27T10:21:02.130Z,2.40
2017-06-27T10:23:29.548Z,1.90
2017-06-27T10:25:57.027Z,2.00
2017-06-27T10:28:24.511Z,2.20
2017-06-27T10:30:51.914Z,2.00
2017-06-27T10:33:19.352Z,2.67
2017-06-27T10:35:46.771Z,2.27
2017-06-27T10:38:14.925Z,2.50
2017-06-27T10:40:42.347Z,2.50
2017-06-27T10:43:09.803Z,2.60
2017-06-27T10:45:37.227Z,2.00
2017-06-27T10:48:04.657Z,2.23
2017-06-27T10:50:32.067Z,2.20
2017-06-27T10:52:59.487Z,2.30
2017-06-27T10:55:26.906Z,3.20
2017-06-27T10:57:54.356Z,2.90
2017-06-27T11:00:21.775Z,2.80
2017-06-27T11:02:49.240Z,2.60
2017-06-27T11:05:16.686Z,2.50
2017-06-27T11:07:44.120Z,2.30
2017-06-27T11:10:11.573Z,2.27
2017-06-27T11:12:38.989Z,2.47
2017-06-27T11:15:06.423Z,2.37
2017-06-27T11:17:33.832Z,2.50
2017-06-27T11:20:01.250Z,2.20
2017-06-27T11:22:28.700Z,2.27
2017-06-27T11:24:56.103Z,2.03
2017-06-27T11:27:23.524Z,2.30
2017-06-27T11:29:50.960Z,2.07
2017-06-27T11:32:18.444Z,2.40
2017-06-27T11:34:45.861Z,2.30
2017-06-27T11:37:13.315Z,2.03
2017-06-27T11:39:40.724Z,2.40
2017-06-27T11:42:08.135Z,2.40
2017-06-27T11:44:35.637Z,2.43
2017-06-27T11:47:03.089Z,2.70
2017-06-27T11:49:30.532Z,2.77
2017-06-27T11:51:57.955Z,2.40
2017-06-27T11:54:25.420Z,2.60
2017-06-27T11:56:52.868Z,2.60
2017-06-27T11:59:20.364Z,2.53
2017-06-27T12:01:59.595Z,2.70
2017-06-27T12:04:34.571Z,2.53
2017-06-27T12:07:06.934Z,3.07
2017-06-27T12:09:34.359Z,3.10
2017-06-27T12:12:01.807Z,2.80
2017-06-27T12:14:29.244Z,3.20
2017-06-27T12:16:56.669Z,3.20
2017-06-27T12:19:24.108Z,3.03
2017-06-27T12:21:51.605Z,2.90
2017-06-27T12:24:19.051Z,2.80
2017-06-27T12:26:46.482Z,2.70
2017-06-27T12:29:13.951Z,2.80
2017-06-27T12:31:41.359Z,3.70
2017-06-27T12:34:08.815Z,3.40
2017-06-27T12:36:36.223Z,3.30
2017-06-27T12:39:03.644Z,3.40
2017-06-27T12:41:31.112Z,3.13
2017-06-27T12:43:58.565Z,3.33
2017-06-27T12:46:25.999Z,3.13
2017-06-27T12:48:53.441Z,3.07
2017-06-27T12:51:20.861Z,3.30
2017-06-27T12:53:48.344Z,3.60
2017-06-27T12:56:15.852Z,3.50
2017-06-27T12:58:43.338Z,3.47
2017-06-27T13:01:10.801Z,3.57
2017-06-27T13:03:38.303Z,3.30
2017-06-27T13:06:05.747Z,3.07
2017-06-27T13:08:33.180Z,3.87
2017-06-27T13:11:00.599Z,3.30
2017-06-27T13:13:28.124Z,3.10
2017-06-27T13:15:55.544Z,3.23
2017-06-27T13:18:22.957Z,3.27
2017-06-27T13:20:50.461Z,3.20
2017-06-27T13:23:17.952Z,3.43
2017-06-27T13:25:45.359Z,3.43
2017-06-27T13:28:12.799Z,3.57
2017-06-27T13:30:40.232Z,3.37
2017-06-27T13:33:07.852Z,3.70
2017-06-27T13:35:35.283Z,3.43
2017-06-27T13:38:02.731Z,3.33
2017-06-27T13:40:30.147Z,3.50
2017-06-27T13:42:57.600Z,3.40
2017-06-27T13:45:25.016Z,3.57
2017-06-27T13:47:52.467Z,3.50
2017-06-27T13:50:19.883Z,3.53
2017-06-27T13:52:47.303Z,3.47
2017-06-27T13:55:14.743Z,3.57
2017-06-27T13:57:42.159Z,3.33
2017-06-27T14:00:09.610Z,3.37
2017-06-27T14:02:37.075Z,3.70
2017-06-27T14:05:04.532Z,3.43
2017-06-27T14:07:31.959Z,3.50
2017-06-27T14:09:59.377Z,3.40
2017-06-27T14:12:26.831Z,3.73
2017-06-27T14:14:54.257Z,3.53
2017-06-27T14:17:21.667Z,3.53
2017-06-27T14:19:49.113Z,3.50
2017-06-27T14:22:16.532Z,2.87
2017-06-27T14:24:44.160Z,3.40
2017-06-27T14:27:11.591Z,3.93
2017-06-27T14:29:39.028Z,3.77
2017-06-27T14:32:06.465Z,3.50
2017-06-27T14:34:34.013Z,3.30
2017-06-27T14:37:01.425Z,3.60
2017-06-27T14:39:28.863Z,3.80
2017-06-27T14:41:56.329Z,3.70
2017-06-27T14:44:23.742Z,3.90
2017-06-27T14:46:51.212Z,3.60
2017-06-27T14:49:18.970Z,3.70
2017-06-27T14:51:46.379Z,4.10
2017-06-27T14:54:13.865Z,4.07
2017-06-27T14:56:41.312Z,4.13
2017-06-27T14:59:08.767Z,4.67
2017-06-27T15:01:36.171Z,4.30
2017-06-27T15:04:03.621Z,4.17
2017-06-27T15:06:31.031Z,4.30
2017-06-27T15:08:58.471Z,4.33
2017-06-27T15:11:25.883Z,4.37
2017-06-27T15:13:53.296Z,4.10
2017-06-27T15:16:20.864Z,4.40
2017-06-27T15:18:48.403Z,4.20
2017-06-27T15:21:15.815Z,4.50
2017-06-27T15:23:43.256Z,4.20
2017-06-27T15:26:10.652Z,4.10
2017-06-27T15:28:38.100Z,3.67
2017-06-27T15:31:05.522Z,4.30
2017-06-27T15:33:33.021Z,4.03
2017-06-27T15:36:00.501Z,4.30
2017-06-27T15:38:27.907Z,4.80
2017-06-27T15:40:55.320Z,4.43
2017-06-27T15:43:22.781Z,4.27
2017-06-27T15:45:50.199Z,3.87
2017-06-27T15:48:17.653Z,3.93
2017-06-27T15:50:45.120Z,3.93
2017-06-27T15:53:12.543Z,3.53
2017-06-27T15:55:39.978Z,3.97
2017-06-27T15:58:07.407Z,3.93
2017-06-27T16:00:34.856Z,4.10
2017-06-27T16:03:02.299Z,4.50
2017-06-27T16:05:30.544Z,4.03
2017-06-27T16:08:14.549Z,4.20
2017-06-27T16:11:00.665Z,3.60
2017-06-27T16:13:28.492Z,4.20
2017-06-27T16:15:56.056Z,3.93
2017-06-27T16:18:23.618Z,4.40
2017-06-27T16:20:51.395Z,4.60
2017-06-27T16:23:19.081Z,4.60
2017-06-27T16:25:46.547Z,4.60
2017-06-27T16:28:15.642Z,4.57
2017-06-27T16:30:44.422Z,4.10
2017-06-27T16:33:13.833Z,4.40
2017-06-27T16:35:42.030Z,4.70
2017-06-27T16:38:11.640Z,4.77
2017-06-27T16:40:40.698Z,4.40
2017-06-27T16:43:09.789Z,4.70
2017-06-27T16:45:38.346Z,4.97
2017-06-27T16:48:07.384Z,5.23
2017-06-27T16:50:35.866Z,5.50
2017-06-27T16:53:04.865Z,4.80
2017-06-27T16:55:34.703Z,5.03
2017-06-27T16:58:03.958Z,5.20
2017-06-27T17:00:33.405Z,5.37
2017-06-27T17:03:02.337Z,4.97
2017-06-27T17:05:30.278Z,4.50
2017-06-27T17:07:59.869Z,4.90
2017-06-27T17:10:28.757Z,4.70
2017-06-27T17:12:57.960Z,4.17
2017-06-27T17:15:26.328Z,3.60
2017-06-27T17:17:56.147Z,4.87
2017-06-27T17:20:24.356Z,4.80
2017-06-27T17:22:53.471Z,4.23
2017-06-27T17:25:23.572Z,3.93
2017-06-27T17:27:52.910Z,4.73
2017-06-27T17:30:23.347Z,4.70
2017-06-27T17:32:53.546Z,3.90
2017-06-27T17:35:23.080Z,4.20
2017-06-27T17:37:52.399Z,4.37
2017-06-27T17:40:22.576Z,4.33
2017-06-27T17:42:50.293Z,4.50
2017-06-27T17:45:19.721Z,4.57
2017-06-27T17:47:48.776Z,4.10
2017-06-27T17:50:18.382Z,4.30
2017-06-27T17:52:46.642Z,3.83
2017-06-27T17:55:16.226Z,4.50
2017-06-27T17:57:45.416Z,3.90
2017-06-27T18:00:14.814Z,4.00
2017-06-27T18:02:43.880Z,4.70
2017-06-27T18:05:12.972Z,4.47
2017-06-27T18:07:42.504Z,4.00
2017-06-27T18:10:10.966Z,3.33
2017-06-27T18:12:40.623Z,4.50
2017-06-27T18:15:09.658Z,4.10
2017-06-27T18:17:39.767Z,4.30
2017-06-27T18:20:08.519Z,4.30
2017-06-27T18:22:37.991Z,4.67
2017-06-27T18:25:07.093Z,4.60
2017-06-27T18:27:35.191Z,4.23
2017-06-27T18:30:04.571Z,4.40
2017-06-27T18:32:32.818Z,4.07
2017-06-27T18:35:01.549Z,4.80
2017-06-27T18:37:32.869Z,4.53
2017-06-27T18:40:02.179Z,4.30
2017-06-27T18:42:31.634Z,4.20
2017-06-27T18:45:00.979Z,4.90
2017-06-27T18:47:30.167Z,5.07
2017-06-27T18:49:58.268Z,5.43
2017-06-27T18:52:27.781Z,5.50
2017-06-27T18:54:57.150Z,4.70
2017-06-27T18:57:24.802Z,4.80
2017-06-27T18:59:52.589Z,5.30
2017-06-27T19:02:20.315Z,4.43
2017-06-27T19:04:48.132Z,4.97
2017-06-27T19:07:16.270Z,5.40
2017-06-27T19:09:44.027Z,5.47
2017-06-27T19:12:11.816Z,4.80
2017-06-27T19:14:39.570Z,5.30
2017-06-27T19:17:07.359Z,4.87
2017-06-27T19:19:35.088Z,4.80
2017-06-27T19:22:02.956Z,5.00
2017-06-27T19:24:30.695Z,4.40
2017-06-27T19:26:58.411Z,5.40
2017-06-27T19:29:26.338Z,5.03
2017-06-27T19:31:54.063Z,5.57
2017-06-27T19:34:22.593Z,5.47
2017-06-27T19:36:50.333Z,4.90
2017-06-27T19:39:18.163Z,5.40
2017-06-27T19:41:45.992Z,5.67
2017-06-27T19:44:13.836Z,5.60
2017-06-27T19:46:41.603Z,5.77
2017-06-27T19:49:09.350Z,5.70
2017-06-27T19:51:37.179Z,5.70
2017-06-27T19:54:06.693Z,5.33
2017-06-27T19:56:34.456Z,4.87
2017-06-27T19:59:02.225Z,5.27
2017-06-27T20:01:29.994Z,4.87
2017-06-27T20:03:57.882Z,5.20
2017-06-27T20:06:25.763Z,4.87
2017-06-27T20:08:53.710Z,4.53
2017-06-27T20:11:21.509Z,5.07
2017-06-27T20:13:49.248Z,4.27
2017-06-27T20:16:16.982Z,4.70
2017-06-27T20:18:44.872Z,4.70
2017-06-27T20:21:12.606Z,5.00
2017-06-27T20:23:40.368Z,4.33
2017-06-27T20:26:08.098Z,5.13
2017-06-27T20:28:35.782Z,4.70
2017-06-27T20:31:03.636Z,5.00
2017-06-27T20:33:31.389Z,5.40
2017-06-27T20:35:59.115Z,5.70
2017-06-27T20:38:26.862Z,5.00
2017-06-27T20:40:54.598Z,5.30
2017-06-27T20:43:22.292Z,4.90
2017-06-27T20:45:49.912Z,5.40
2017-06-27T20:48:17.544Z,5.10
2017-06-27T20:50:45.103Z,4.97
2017-06-27T20:53:12.605Z,5.00
2017-06-27T20:55:40.058Z,4.93
2017-06-27T20:58:07.501Z,5.70
2017-06-27T21:00:34.955Z,5.40
2017-06-27T21:03:02.401Z,5.20
2017-06-27T21:05:29.833Z,5.07
2017-06-27T21:07:57.614Z,5.80
2017-06-27T21:10:25.196Z,5.80
2017-06-27T21:12:52.628Z,5.07
2017-06-27T21:15:20.180Z,5.60
2017-06-27T21:17:47.638Z,6.00
2017-06-27T21:20:15.053Z,5.80
2017-06-27T21:22:42.467Z,5.60
2017-06-27T21:25:09.921Z,6.33
2017-06-27T21:27:37.396Z,5.80
2017-06-27T21:30:04.816Z,5.93
2017-06-27T21:32:32.347Z,6.27
2017-06-27T21:34:59.916Z,5.80
2017-06-27T21:37:27.451Z,6.77
2017-06-27T21:39:54.874Z,5.90
2017-06-27T21:42:22.271Z,6.00
2017-06-27T21:44:49.732Z,5.93
2017-06-27T21:47:17.148Z,5.67
2017-06-27T21:49:44.560Z,6.03
2017-06-27T21:52:12.063Z,5.80
2017-06-27T21:54:39.544Z,6.40
2017-06-27T21:57:06.979Z,5.90
2017-06-27T21:59:34.429Z,6.13
2017-06-27T22:02:01.848Z,5.80
2017-06-27T22:04:29.252Z,6.37
2017-06-27T22:06:56.730Z,5.90
2017-06-27T22:09:24.180Z,6.87
2017-06-27T22:11:51.754Z,6.77
2017-06-27T22:14:19.360Z,6.50
2017-06-27T22:16:46.803Z,6.60
2017-06-27T22:19:14.232Z,6.47
2017-06-27T22:21:41.648Z,6.27
2017-06-27T22:24:09.101Z,6.13
2017-06-27T22:26:36.515Z,7.20
2017-06-27T22:29:04.015Z,7.50
2017-06-27T22:31:31.475Z,6.50
2017-06-27T22:33:58.915Z,6.23
2017-06-27T22:36:26.364Z,6.07
2017-06-27T22:38:53.802Z,5.97
2017-06-27T22:41:21.243Z,6.57
2017-06-27T22:43:48.651Z,6.63
2017-06-27T22:46:16.124Z,6.33
2017-06-27T22:48:43.615Z,5.93
2017-06-27T22:51:11.051Z,6.47
2017-06-27T22:53:38.520Z,6.73
2017-06-27T22:56:05.955Z,6.40
2017-06-27T22:58:33.384Z,6.87
2017-06-27T23:01:00.811Z,6.93
2017-06-27T23:03:28.288Z,6.97
2017-06-27T23:05:55.973Z,6.90
2017-06-27T23:08:23.411Z,6.57
2017-06-27T23:10:50.852Z,5.80
2017-06-27T23:13:18.356Z,6.77
2017-06-27T23:15:45.780Z,6.90
2017-06-27T23:18:13.207Z,6.97
2017-06-27T23:20:40.639Z,7.07
2017-06-27T23:23:08.066Z,6.50
2017-06-27T23:25:35.548Z,6.70
2017-06-27T23:28:02.960Z,6.70
2017-06-27T23:30:31.147Z,6.47
2017-06-27T23:32:58.631Z,6.40
2017-06-27T23:35:26.035Z,6.97
2017-06-27T23:37:53.436Z,5.80
2017-06-27T23:40:20.882Z,6.57
2017-06-27T23:42:48.587Z,7.53
2017-06-27T23:45:16.020Z,7.27
2017-06-27T23:47:43.518Z,7.53
2017-06-27T23:50:10.955Z,6.20
2017-06-27T23:52:38.374Z,6.30
2017-06-27T23:55:05.814Z,6.07
2017-06-27T23:57:33.281Z,6.70
